sensor_id;sensor_type;location;lat;lon;timestamp;P1;durP1;ratioP1;P2;durP2;ratioP2
13933;SDS011;7039;52.168;9.866;2022-07-22T00:01:48;11.50;;;9.37;;
13933;SDS011;7039;52.168;9.866;2022-07-22T00:04:15;12.87;;;9.93;;
13933;SDS011;7039;52.168;9.866;2022-07-22T00:06:42;15.43;;;10.97;;
13933;SDS011;7039;52.168;9.866;2022-07-22T00:09:10;13.00;;;11.10;;
13933;SDS011;7039;52.168;9.866;2022-07-22T00:11:37;13.07;;;11.20;;
13933;SDS011;7039;52.168;9.866;2022-07-22T00:14:03;12.40;;;10.43;;
13933;SDS011;7039;52.168;9.866;2022-07-22T00:16:30;13.40;;;11.00;;
13933;SDS011;7039;52.168;9.866;2022-07-22T00:19:21;14.50;;;12.00;;
13933;SDS011;7039;52.168;9.866;2022-07-22T00:21:49;14.53;;;11.43;;
13933;SDS011;7039;52.168;9.866;2022-07-22T00:24:17;15.40;;;12.40;;
13933;SDS011;7039;52.168;9.866;2022-07-22T00:26:44;14.00;;;12.50;;
13933;SDS011;7039;52.168;9.866;2022-07-22T00:29:10;15.00;;;12.93;;
13933;SDS011;7039;52.168;9.866;2022-07-22T00:31:37;15.50;;;13.77;;
13933;SDS011;7039;52.168;9.866;2022-07-22T00:34:16;14.33;;;11.43;;
13933;SDS011;7039;52.168;9.866;2022-07-22T00:36:54;13.83;;;12.27;;
13933;SDS011;7039;52.168;9.866;2022-07-22T00:39:43;14.43;;;12.03;;
13933;SDS011;7039;52.168;9.866;2022-07-22T00:42:35;15.40;;;12.93;;
13933;SDS011;7039;52.168;9.866;2022-07-22T00:45:02;15.97;;;12.57;;
13933;SDS011;7039;52.168;9.866;2022-07-22T00:47:29;13.10;;;11.77;;
13933;SDS011;7039;52.168;9.866;2022-07-22T00:49:56;14.97;;;13.37;;
13933;SDS011;7039;52.168;9.866;2022-07-22T00:52:22;14.50;;;12.60;;
13933;SDS011;7039;52.168;9.866;2022-07-22T00:54:51;15.00;;;11.93;;
13933;SDS011;7039;52.168;9.866;2022-07-22T00:57:17;14.10;;;12.60;;
13933;SDS011;7039;52.168;9.866;2022-07-22T00:59:44;15.00;;;13.40;;
13933;SDS011;7039;52.168;9.866;2022-07-22T01:02:13;16.90;;;11.87;;
13933;SDS011;7039;52.168;9.866;2022-07-22T01:04:40;13.87;;;11.20;;
13933;SDS011;7039;52.168;9.866;2022-07-22T02:10:46;20.87;;;15.90;;
13933;SDS011;7039;52.168;9.866;2022-07-22T02:13:12;26.93;;;16.63;;
13933;SDS011;7039;52.168;9.866;2022-07-22T02:15:39;23.23;;;16.53;;
13933;SDS011;7039;52.168;9.866;2022-07-22T02:18:10;22.53;;;16.90;;
13933;SDS011;7039;52.168;9.866;2022-07-22T02:20:38;24.90;;;17.77;;
13933;SDS011;7039;52.168;9.866;2022-07-22T02:23:04;22.10;;;15.87;;
13933;SDS011;7039;52.168;9.866;2022-07-22T02:25:32;25.60;;;17.33;;
13933;SDS011;7039;52.168;9.866;2022-07-22T02:28:00;23.67;;;16.90;;
13933;SDS011;7039;52.168;9.866;2022-07-22T02:30:27;29.47;;;16.90;;
13933;SDS011;7039;52.168;9.866;2022-07-22T02:32:54;23.33;;;16.87;;
13933;SDS011;7039;52.168;9.866;2022-07-22T02:35:20;26.70;;;17.60;;
13933;SDS011;7039;52.168;9.866;2022-07-22T02:37:47;23.80;;;17.53;;
13933;SDS011;7039;52.168;9.866;2022-07-22T02:40:13;27.23;;;17.30;;
13933;SDS011;7039;52.168;9.866;2022-07-22T02:42:40;29.37;;;18.03;;
13933;SDS011;7039;52.168;9.866;2022-07-22T02:45:09;30.47;;;18.97;;
13933;SDS011;7039;52.168;9.866;2022-07-22T02:47:43;23.13;;;17.13;;
13933;SDS011;7039;52.168;9.866;2022-07-22T02:50:11;23.13;;;16.00;;
13933;SDS011;7039;52.168;9.866;2022-07-22T02:52:38;20.90;;;14.70;;
13933;SDS011;7039;52.168;9.866;2022-07-22T02:55:05;19.47;;;13.37;;
13933;SDS011;7039;52.168;9.866;2022-07-22T02:57:32;16.73;;;11.83;;
13933;SDS011;7039;52.168;9.866;2022-07-22T02:59:58;15.13;;;10.60;;
13933;SDS011;7039;52.168;9.866;2022-07-22T03:02:26;16.07;;;9.60;;
13933;SDS011;7039;52.168;9.866;2022-07-22T03:04:53;15.17;;;9.73;;
13933;SDS011;7039;52.168;9.866;2022-07-22T03:07:20;15.17;;;9.83;;
13933;SDS011;7039;52.168;9.866;2022-07-22T03:09:46;14.67;;;9.47;;
13933;SDS011;7039;52.168;9.866;2022-07-22T03:12:13;12.67;;;8.60;;
13933;SDS011;7039;52.168;9.866;2022-07-22T03:14:39;11.47;;;8.50;;
13933;SDS011;7039;52.168;9.866;2022-07-22T03:17:06;12.97;;;9.50;;
13933;SDS011;7039;52.168;9.866;2022-07-22T03:19:34;13.37;;;9.37;;
13933;SDS011;7039;52.168;9.866;2022-07-22T03:22:00;17.10;;;10.37;;
13933;SDS011;7039;52.168;9.866;2022-07-22T03:24:27;14.10;;;9.47;;
13933;SDS011;7039;52.168;9.866;2022-07-22T03:26:54;12.90;;;8.70;;
13933;SDS011;7039;52.168;9.866;2022-07-22T03:29:20;15.10;;;9.47;;
13933;SDS011;7039;52.168;9.866;2022-07-22T03:31:47;14.13;;;8.03;;
13933;SDS011;7039;52.168;9.866;2022-07-22T03:34:13;13.53;;;8.23;;
13933;SDS011;7039;52.168;9.866;2022-07-22T03:36:41;13.97;;;7.47;;
13933;SDS011;7039;52.168;9.866;2022-07-22T03:39:07;11.40;;;7.77;;
13933;SDS011;7039;52.168;9.866;2022-07-22T03:41:34;10.60;;;7.70;;
13933;SDS011;7039;52.168;9.866;2022-07-22T03:44:00;17.23;;;8.20;;
13933;SDS011;7039;52.168;9.866;2022-07-22T03:46:27;14.37;;;8.47;;
13933;SDS011;7039;52.168;9.866;2022-07-22T03:48:53;13.23;;;9.20;;
13933;SDS011;7039;52.168;9.866;2022-07-22T03:51:20;16.83;;;9.70;;
13933;SDS011;7039;52.168;9.866;2022-07-22T03:53:48;14.67;;;9.23;;
13933;SDS011;7039;52.168;9.866;2022-07-22T03:56:14;15.23;;;9.87;;
13933;SDS011;7039;52.168;9.866;2022-07-22T03:58:41;13.53;;;8.97;;
13933;SDS011;7039;52.168;9.866;2022-07-22T04:01:08;14.30;;;9.03;;
13933;SDS011;7039;52.168;9.866;2022-07-22T04:03:34;13.50;;;8.70;;
13933;SDS011;7039;52.168;9.866;2022-07-22T04:06:01;13.37;;;8.17;;
13933;SDS011;7039;52.168;9.866;2022-07-22T04:08:27;10.87;;;7.93;;
13933;SDS011;7039;52.168;9.866;2022-07-22T04:10:55;8.40;;;7.00;;
13933;SDS011;7039;52.168;9.866;2022-07-22T04:13:22;9.53;;;7.57;;
13933;SDS011;7039;52.168;9.866;2022-07-22T04:15:48;11.70;;;7.87;;
13933;SDS011;7039;52.168;9.866;2022-07-22T04:18:15;10.30;;;7.60;;
13933;SDS011;7039;52.168;9.866;2022-07-22T04:20:42;9.33;;;7.33;;
13933;SDS011;7039;52.168;9.866;2022-07-22T04:23:09;10.33;;;7.93;;
13933;SDS011;7039;52.168;9.866;2022-07-22T04:25:35;8.90;;;6.63;;
13933;SDS011;7039;52.168;9.866;2022-07-22T04:28:03;8.53;;;6.77;;
13933;SDS011;7039;52.168;9.866;2022-07-22T04:30:30;7.57;;;6.40;;
13933;SDS011;7039;52.168;9.866;2022-07-22T04:32:57;7.57;;;6.07;;
13933;SDS011;7039;52.168;9.866;2022-07-22T04:35:24;10.03;;;5.97;;
13933;SDS011;7039;52.168;9.866;2022-07-22T04:37:51;8.57;;;7.10;;
13933;SDS011;7039;52.168;9.866;2022-07-22T04:40:17;10.17;;;6.57;;
13933;SDS011;7039;52.168;9.866;2022-07-22T04:42:44;6.57;;;5.33;;
13933;SDS011;7039;52.168;9.866;2022-07-22T04:45:12;8.03;;;6.20;;
13933;SDS011;7039;52.168;9.866;2022-07-22T04:47:38;6.60;;;5.90;;
13933;SDS011;7039;52.168;9.866;2022-07-22T04:50:05;7.43;;;6.10;;
13933;SDS011;7039;52.168;9.866;2022-07-22T04:52:32;8.33;;;5.43;;
13933;SDS011;7039;52.168;9.866;2022-07-22T04:54:59;5.90;;;5.30;;
13933;SDS011;7039;52.168;9.866;2022-07-22T04:57:25;8.93;;;5.50;;
13933;SDS011;7039;52.168;9.866;2022-07-22T04:59:52;6.17;;;5.40;;
13933;SDS011;7039;52.168;9.866;2022-07-22T05:02:20;8.53;;;5.33;;
13933;SDS011;7039;52.168;9.866;2022-07-22T05:04:47;7.63;;;5.20;;
13933;SDS011;7039;52.168;9.866;2022-07-22T05:07:14;7.80;;;4.40;;
13933;SDS011;7039;52.168;9.866;2022-07-22T05:09:41;6.17;;;4.70;;
13933;SDS011;7039;52.168;9.866;2022-07-22T05:12:07;8.33;;;5.57;;
13933;SDS011;7039;52.168;9.866;2022-07-22T05:14:34;6.43;;;5.30;;
13933;SDS011;7039;52.168;9.866;2022-07-22T05:17:00;7.60;;;5.27;;
13933;SDS011;7039;52.168;9.866;2022-07-22T05:19:28;6.77;;;5.30;;
13933;SDS011;7039;52.168;9.866;2022-07-22T05:21:55;11.03;;;5.20;;
13933;SDS011;7039;52.168;9.866;2022-07-22T05:24:21;7.83;;;5.03;;
13933;SDS011;7039;52.168;9.866;2022-07-22T05:26:48;5.37;;;4.87;;
13933;SDS011;7039;52.168;9.866;2022-07-22T05:29:14;11.43;;;5.47;;
13933;SDS011;7039;52.168;9.866;2022-07-22T05:31:41;8.33;;;5.10;;
13933;SDS011;7039;52.168;9.866;2022-07-22T05:34:07;6.60;;;4.63;;
13933;SDS011;7039;52.168;9.866;2022-07-22T05:36:35;6.40;;;5.43;;
13933;SDS011;7039;52.168;9.866;2022-07-22T05:39:01;6.03;;;5.30;;
13933;SDS011;7039;52.168;9.866;2022-07-22T05:41:28;8.73;;;5.07;;
13933;SDS011;7039;52.168;9.866;2022-07-22T05:43:55;6.97;;;5.30;;
13933;SDS011;7039;52.168;9.866;2022-07-22T05:46:21;7.80;;;5.07;;
13933;SDS011;7039;52.168;9.866;2022-07-22T05:48:48;8.03;;;5.10;;
13933;SDS011;7039;52.168;9.866;2022-07-22T05:51:14;6.83;;;4.80;;
13933;SDS011;7039;52.168;9.866;2022-07-22T05:53:42;8.63;;;3.90;;
13933;SDS011;7039;52.168;9.866;2022-07-22T05:56:09;8.13;;;4.23;;
13933;SDS011;7039;52.168;9.866;2022-07-22T05:58:37;6.60;;;3.27;;
13933;SDS011;7039;52.168;9.866;2022-07-22T06:01:03;7.30;;;3.00;;
13933;SDS011;7039;52.168;9.866;2022-07-22T06:03:30;3.80;;;2.93;;
13933;SDS011;7039;52.168;9.866;2022-07-22T06:05:57;6.90;;;3.13;;
13933;SDS011;7039;52.168;9.866;2022-07-22T06:08:24;6.03;;;3.17;;
13933;SDS011;7039;52.168;9.866;2022-07-22T06:10:51;4.63;;;2.83;;
13933;SDS011;7039;52.168;9.866;2022-07-22T06:13:18;5.70;;;2.70;;
13933;SDS011;7039;52.168;9.866;2022-07-22T06:15:45;10.20;;;2.67;;
13933;SDS011;7039;52.168;9.866;2022-07-22T06:18:11;3.93;;;2.80;;
13933;SDS011;7039;52.168;9.866;2022-07-22T06:20:38;2.77;;;2.30;;
13933;SDS011;7039;52.168;9.866;2022-07-22T06:23:04;3.67;;;2.07;;
13933;SDS011;7039;52.168;9.866;2022-07-22T06:25:31;2.13;;;1.93;;
13933;SDS011;7039;52.168;9.866;2022-07-22T06:27:59;6.73;;;2.10;;
13933;SDS011;7039;52.168;9.866;2022-07-22T06:30:26;2.97;;;2.10;;
13933;SDS011;7039;52.168;9.866;2022-07-22T06:32:52;3.90;;;2.07;;
13933;SDS011;7039;52.168;9.866;2022-07-22T06:35:19;2.33;;;2.10;;
13933;SDS011;7039;52.168;9.866;2022-07-22T06:37:46;4.37;;;2.57;;
13933;SDS011;7039;52.168;9.866;2022-07-22T06:40:12;3.50;;;2.67;;
13933;SDS011;7039;52.168;9.866;2022-07-22T06:42:39;7.23;;;2.33;;
13933;SDS011;7039;52.168;9.866;2022-07-22T06:45:07;4.43;;;2.30;;
13933;SDS011;7039;52.168;9.866;2022-07-22T06:47:34;3.53;;;2.50;;
13933;SDS011;7039;52.168;9.866;2022-07-22T06:50:01;4.80;;;2.77;;
13933;SDS011;7039;52.168;9.866;2022-07-22T06:52:28;6.83;;;3.87;;
13933;SDS011;7039;52.168;9.866;2022-07-22T06:54:54;7.47;;;4.37;;
13933;SDS011;7039;52.168;9.866;2022-07-22T06:57:21;8.33;;;4.80;;
13933;SDS011;7039;52.168;9.866;2022-07-22T06:59:49;8.17;;;4.33;;
13933;SDS011;7039;52.168;9.866;2022-07-22T07:02:17;7.20;;;4.33;;
13933;SDS011;7039;52.168;9.866;2022-07-22T07:04:44;6.23;;;4.70;;
13933;SDS011;7039;52.168;9.866;2022-07-22T07:07:10;9.83;;;4.23;;
13933;SDS011;7039;52.168;9.866;2022-07-22T07:09:37;6.90;;;4.17;;
13933;SDS011;7039;52.168;9.866;2022-07-22T07:12:04;8.63;;;4.07;;
13933;SDS011;7039;52.168;9.866;2022-07-22T07:14:31;6.73;;;3.70;;
13933;SDS011;7039;52.168;9.866;2022-07-22T07:16:58;3.90;;;3.50;;
13933;SDS011;7039;52.168;9.866;2022-07-22T07:19:25;6.50;;;3.60;;
13933;SDS011;7039;52.168;9.866;2022-07-22T07:21:52;8.53;;;4.43;;
13933;SDS011;7039;52.168;9.866;2022-07-22T07:24:19;6.07;;;3.03;;
13933;SDS011;7039;52.168;9.866;2022-07-22T07:26:45;3.73;;;3.17;;
13933;SDS011;7039;52.168;9.866;2022-07-22T07:29:12;7.70;;;3.70;;
13933;SDS011;7039;52.168;9.866;2022-07-22T07:31:38;4.90;;;3.30;;
13933;SDS011;7039;52.168;9.866;2022-07-22T07:34:05;5.40;;;2.90;;
13933;SDS011;7039;52.168;9.866;2022-07-22T07:36:33;4.97;;;3.70;;
13933;SDS011;7039;52.168;9.866;2022-07-22T07:38:59;16.83;;;3.23;;
13933;SDS011;7039;52.168;9.866;2022-07-22T07:41:26;4.80;;;2.97;;
13933;SDS011;7039;52.168;9.866;2022-07-22T07:43:52;11.07;;;2.80;;
13933;SDS011;7039;52.168;9.866;2022-07-22T07:46:19;5.20;;;3.10;;
13933;SDS011;7039;52.168;9.866;2022-07-22T07:48:45;5.03;;;2.60;;
13933;SDS011;7039;52.168;9.866;2022-07-22T07:51:13;7.10;;;2.70;;
13933;SDS011;7039;52.168;9.866;2022-07-22T07:53:41;2.30;;;1.70;;
13933;SDS011;7039;52.168;9.866;2022-07-22T07:56:08;3.53;;;2.10;;
13933;SDS011;7039;52.168;9.866;2022-07-22T07:58:34;4.73;;;2.00;;
13933;SDS011;7039;52.168;9.866;2022-07-22T08:01:01;5.97;;;2.20;;
13933;SDS011;7039;52.168;9.866;2022-07-22T08:03:27;2.47;;;1.90;;
13933;SDS011;7039;52.168;9.866;2022-07-22T08:05:54;2.57;;;1.87;;
13933;SDS011;7039;52.168;9.866;2022-07-22T08:08:22;4.90;;;2.07;;
13933;SDS011;7039;52.168;9.866;2022-07-22T08:10:50;3.50;;;2.10;;
13933;SDS011;7039;52.168;9.866;2022-07-22T08:13:17;2.57;;;1.90;;
13933;SDS011;7039;52.168;9.866;2022-07-22T08:15:43;3.70;;;2.03;;
13933;SDS011;7039;52.168;9.866;2022-07-22T08:18:10;2.40;;;2.10;;
13933;SDS011;7039;52.168;9.866;2022-07-22T08:20:37;4.90;;;2.10;;
13933;SDS011;7039;52.168;9.866;2022-07-22T08:23:03;5.40;;;3.10;;
13933;SDS011;7039;52.168;9.866;2022-07-22T08:25:30;6.30;;;3.03;;
13933;SDS011;7039;52.168;9.866;2022-07-22T08:27:58;4.73;;;2.00;;
13933;SDS011;7039;52.168;9.866;2022-07-22T08:30:24;2.10;;;1.90;;
13933;SDS011;7039;52.168;9.866;2022-07-22T08:32:53;2.77;;;2.07;;
13933;SDS011;7039;52.168;9.866;2022-07-22T08:35:20;6.63;;;2.10;;
13933;SDS011;7039;52.168;9.866;2022-07-22T08:37:47;2.13;;;1.80;;
13933;SDS011;7039;52.168;9.866;2022-07-22T08:40:14;2.13;;;1.70;;
13933;SDS011;7039;52.168;9.866;2022-07-22T08:42:42;3.20;;;1.83;;
13933;SDS011;7039;52.168;9.866;2022-07-22T08:45:12;3.40;;;1.70;;
13933;SDS011;7039;52.168;9.866;2022-07-22T08:47:38;2.80;;;1.77;;
13933;SDS011;7039;52.168;9.866;2022-07-22T08:50:05;2.97;;;2.23;;
13933;SDS011;7039;52.168;9.866;2022-07-22T08:52:32;4.10;;;1.73;;
13933;SDS011;7039;52.168;9.866;2022-07-22T08:55:01;3.57;;;2.07;;
13933;SDS011;7039;52.168;9.866;2022-07-22T08:57:28;4.37;;;2.43;;
13933;SDS011;7039;52.168;9.866;2022-07-22T08:59:56;4.97;;;2.23;;
13933;SDS011;7039;52.168;9.866;2022-07-22T09:02:25;7.97;;;2.70;;
13933;SDS011;7039;52.168;9.866;2022-07-22T09:04:54;4.63;;;2.80;;
13933;SDS011;7039;52.168;9.866;2022-07-22T09:07:26;6.80;;;3.37;;
13933;SDS011;7039;52.168;9.866;2022-07-22T09:09:54;5.60;;;2.90;;
13933;SDS011;7039;52.168;9.866;2022-07-22T09:12:21;5.63;;;2.60;;
13933;SDS011;7039;52.168;9.866;2022-07-22T09:14:49;4.37;;;2.63;;
13933;SDS011;7039;52.168;9.866;2022-07-22T09:17:26;4.37;;;2.20;;
13933;SDS011;7039;52.168;9.866;2022-07-22T09:19:55;8.87;;;2.50;;
13933;SDS011;7039;52.168;9.866;2022-07-22T09:22:30;3.80;;;2.70;;
13933;SDS011;7039;52.168;9.866;2022-07-22T09:24:58;5.40;;;2.63;;
13933;SDS011;7039;52.168;9.866;2022-07-22T09:27:26;5.07;;;2.90;;
13933;SDS011;7039;52.168;9.866;2022-07-22T09:29:54;6.77;;;2.50;;
13933;SDS011;7039;52.168;9.866;2022-07-22T09:32:21;6.33;;;2.93;;
13933;SDS011;7039;52.168;9.866;2022-07-22T09:34:49;4.83;;;2.93;;
13933;SDS011;7039;52.168;9.866;2022-07-22T09:37:16;5.47;;;2.90;;
13933;SDS011;7039;52.168;9.866;2022-07-22T09:39:43;4.63;;;3.00;;
13933;SDS011;7039;52.168;9.866;2022-07-22T09:42:09;4.77;;;2.73;;
13933;SDS011;7039;52.168;9.866;2022-07-22T09:44:36;5.57;;;2.97;;
13933;SDS011;7039;52.168;9.866;2022-07-22T09:47:02;5.47;;;3.07;;
13933;SDS011;7039;52.168;9.866;2022-07-22T09:49:29;4.60;;;3.03;;
13933;SDS011;7039;52.168;9.866;2022-07-22T09:51:58;6.03;;;3.10;;
13933;SDS011;7039;52.168;9.866;2022-07-22T09:54:26;6.90;;;3.23;;
13933;SDS011;7039;52.168;9.866;2022-07-22T09:56:54;7.47;;;2.67;;
13933;SDS011;7039;52.168;9.866;2022-07-22T09:59:20;5.33;;;2.60;;
13933;SDS011;7039;52.168;9.866;2022-07-22T10:01:47;5.43;;;2.90;;
13933;SDS011;7039;52.168;9.866;2022-07-22T10:04:17;11.17;;;3.20;;
13933;SDS011;7039;52.168;9.866;2022-07-22T10:06:46;6.57;;;2.60;;
13933;SDS011;7039;52.168;9.866;2022-07-22T10:09:15;4.30;;;2.70;;
13933;SDS011;7039;52.168;9.866;2022-07-22T10:11:43;4.63;;;2.50;;
13933;SDS011;7039;52.168;9.866;2022-07-22T10:14:12;3.43;;;2.73;;
13933;SDS011;7039;52.168;9.866;2022-07-22T10:16:39;3.90;;;3.07;;
13933;SDS011;7039;52.168;9.866;2022-07-22T10:19:06;5.13;;;3.40;;
13933;SDS011;7039;52.168;9.866;2022-07-22T10:21:34;6.03;;;3.40;;
13933;SDS011;7039;52.168;9.866;2022-07-22T10:24:08;5.27;;;3.37;;
13933;SDS011;7039;52.168;9.866;2022-07-22T10:26:47;4.47;;;3.30;;
13933;SDS011;7039;52.168;9.866;2022-07-22T10:29:28;3.73;;;3.20;;
13933;SDS011;7039;52.168;9.866;2022-07-22T10:32:21;5.70;;;3.27;;
13933;SDS011;7039;52.168;9.866;2022-07-22T10:37:49;3.30;;;2.70;;
13933;SDS011;7039;52.168;9.866;2022-07-22T10:40:18;3.53;;;2.53;;
13933;SDS011;7039;52.168;9.866;2022-07-22T10:43:04;3.33;;;2.20;;
13933;SDS011;7039;52.168;9.866;2022-07-22T10:45:32;3.43;;;2.20;;
13933;SDS011;7039;52.168;9.866;2022-07-22T10:48:01;3.03;;;2.30;;
13933;SDS011;7039;52.168;9.866;2022-07-22T10:50:43;3.03;;;2.37;;
13933;SDS011;7039;52.168;9.866;2022-07-22T10:53:15;8.30;;;2.77;;
13933;SDS011;7039;52.168;9.866;2022-07-22T10:56:01;3.83;;;2.40;;
13933;SDS011;7039;52.168;9.866;2022-07-22T10:58:45;2.73;;;2.27;;
13933;SDS011;7039;52.168;9.866;2022-07-22T11:01:18;2.67;;;2.30;;
13933;SDS011;7039;52.168;9.866;2022-07-22T11:03:46;4.83;;;2.47;;
13933;SDS011;7039;52.168;9.866;2022-07-22T11:06:15;4.80;;;2.33;;
13933;SDS011;7039;52.168;9.866;2022-07-22T11:08:44;2.97;;;2.23;;
13933;SDS011;7039;52.168;9.866;2022-07-22T11:11:12;3.23;;;2.30;;
13933;SDS011;7039;52.168;9.866;2022-07-22T11:13:39;2.47;;;2.20;;
13933;SDS011;7039;52.168;9.866;2022-07-22T11:16:15;3.50;;;2.30;;
13933;SDS011;7039;52.168;9.866;2022-07-22T11:18:46;3.17;;;2.10;;
13933;SDS011;7039;52.168;9.866;2022-07-22T11:21:15;4.67;;;2.60;;
13933;SDS011;7039;52.168;9.866;2022-07-22T11:23:43;2.60;;;2.40;;
13933;SDS011;7039;52.168;9.866;2022-07-22T11:26:10;3.47;;;2.57;;
13933;SDS011;7039;52.168;9.866;2022-07-22T11:28:41;7.20;;;2.90;;
13933;SDS011;7039;52.168;9.866;2022-07-22T11:31:08;3.53;;;2.73;;
13933;SDS011;7039;52.168;9.866;2022-07-22T11:33:36;2.67;;;2.33;;
13933;SDS011;7039;52.168;9.866;2022-07-22T11:36:03;3.20;;;2.90;;
13933;SDS011;7039;52.168;9.866;2022-07-22T11:38:44;3.73;;;2.60;;
13933;SDS011;7039;52.168;9.866;2022-07-22T11:41:12;3.00;;;2.70;;
13933;SDS011;7039;52.168;9.866;2022-07-22T11:43:41;3.83;;;3.43;;
13933;SDS011;7039;52.168;9.866;2022-07-22T11:46:08;3.43;;;2.87;;
13933;SDS011;7039;52.168;9.866;2022-07-22T11:48:37;5.87;;;2.90;;
13933;SDS011;7039;52.168;9.866;2022-07-22T11:51:04;6.93;;;3.07;;
13933;SDS011;7039;52.168;9.866;2022-07-22T11:53:32;3.90;;;2.90;;
13933;SDS011;7039;52.168;9.866;2022-07-22T11:55:59;3.63;;;2.77;;
13933;SDS011;7039;52.168;9.866;2022-07-22T11:58:34;4.87;;;2.83;;
13933;SDS011;7039;52.168;9.866;2022-07-22T12:01:05;3.27;;;2.97;;
13933;SDS011;7039;52.168;9.866;2022-07-22T12:03:33;4.73;;;2.80;;
13933;SDS011;7039;52.168;9.866;2022-07-22T12:06:01;5.20;;;3.33;;
13933;SDS011;7039;52.168;9.866;2022-07-22T12:08:29;6.97;;;2.53;;
13933;SDS011;7039;52.168;9.866;2022-07-22T12:10:56;7.53;;;3.13;;
13933;SDS011;7039;52.168;9.866;2022-07-22T12:13:27;4.63;;;2.80;;
13933;SDS011;7039;52.168;9.866;2022-07-22T12:15:55;7.80;;;2.77;;
13933;SDS011;7039;52.168;9.866;2022-07-22T12:18:22;5.17;;;3.20;;
13933;SDS011;7039;52.168;9.866;2022-07-22T12:20:51;4.13;;;2.80;;
13933;SDS011;7039;52.168;9.866;2022-07-22T12:23:19;8.97;;;3.30;;
13933;SDS011;7039;52.168;9.866;2022-07-22T12:25:50;5.20;;;3.50;;
13933;SDS011;7039;52.168;9.866;2022-07-22T12:28:18;4.33;;;3.20;;
13933;SDS011;7039;52.168;9.866;2022-07-22T12:30:44;7.10;;;3.27;;
13933;SDS011;7039;52.168;9.866;2022-07-22T12:33:12;4.13;;;3.00;;
13933;SDS011;7039;52.168;9.866;2022-07-22T12:35:40;6.23;;;3.13;;
13933;SDS011;7039;52.168;9.866;2022-07-22T12:38:06;4.53;;;3.20;;
13933;SDS011;7039;52.168;9.866;2022-07-22T12:40:35;7.47;;;2.87;;
13933;SDS011;7039;52.168;9.866;2022-07-22T12:43:03;7.33;;;3.23;;
13933;SDS011;7039;52.168;9.866;2022-07-22T12:45:31;9.00;;;4.17;;
13933;SDS011;7039;52.168;9.866;2022-07-22T12:48:05;8.60;;;3.50;;
13933;SDS011;7039;52.168;9.866;2022-07-22T12:50:33;3.70;;;2.67;;
13933;SDS011;7039;52.168;9.866;2022-07-22T12:53:02;4.67;;;2.90;;
13933;SDS011;7039;52.168;9.866;2022-07-22T12:55:31;11.00;;;3.53;;
13933;SDS011;7039;52.168;9.866;2022-07-22T12:57:59;9.73;;;3.80;;
13933;SDS011;7039;52.168;9.866;2022-07-22T13:00:27;10.97;;;4.43;;
13933;SDS011;7039;52.168;9.866;2022-07-22T13:02:55;7.47;;;4.03;;
13933;SDS011;7039;52.168;9.866;2022-07-22T13:05:22;8.93;;;4.50;;
13933;SDS011;7039;52.168;9.866;2022-07-22T13:07:50;7.73;;;4.07;;
13933;SDS011;7039;52.168;9.866;2022-07-22T13:10:18;5.67;;;3.47;;
13933;SDS011;7039;52.168;9.866;2022-07-22T13:12:46;6.47;;;3.40;;
13933;SDS011;7039;52.168;9.866;2022-07-22T13:15:14;12.00;;;3.90;;
13933;SDS011;7039;52.168;9.866;2022-07-22T13:17:41;7.33;;;3.33;;
13933;SDS011;7039;52.168;9.866;2022-07-22T13:20:09;8.57;;;4.07;;
13933;SDS011;7039;52.168;9.866;2022-07-22T13:22:38;7.83;;;3.37;;
13933;SDS011;7039;52.168;9.866;2022-07-22T13:25:05;5.00;;;3.37;;
13933;SDS011;7039;52.168;9.866;2022-07-22T13:27:32;5.47;;;3.37;;
13933;SDS011;7039;52.168;9.866;2022-07-22T13:29:59;8.67;;;4.43;;
13933;SDS011;7039;52.168;9.866;2022-07-22T13:32:27;4.57;;;3.33;;
13933;SDS011;7039;52.168;9.866;2022-07-22T13:34:53;6.03;;;3.67;;
13933;SDS011;7039;52.168;9.866;2022-07-22T13:37:20;4.00;;;3.17;;
13933;SDS011;7039;52.168;9.866;2022-07-22T13:39:47;7.03;;;3.70;;
13933;SDS011;7039;52.168;9.866;2022-07-22T13:42:13;8.47;;;3.40;;
13933;SDS011;7039;52.168;9.866;2022-07-22T13:44:42;5.53;;;3.10;;
13933;SDS011;7039;52.168;9.866;2022-07-22T13:47:09;5.23;;;3.40;;
13933;SDS011;7039;52.168;9.866;2022-07-22T13:49:37;15.23;;;3.33;;
13933;SDS011;7039;52.168;9.866;2022-07-22T13:52:04;6.33;;;3.43;;
13933;SDS011;7039;52.168;9.866;2022-07-22T13:54:31;5.80;;;3.63;;
13933;SDS011;7039;52.168;9.866;2022-07-22T13:56:58;6.27;;;3.70;;
13933;SDS011;7039;52.168;9.866;2022-07-22T13:59:25;6.10;;;3.60;;
13933;SDS011;7039;52.168;9.866;2022-07-22T14:01:54;6.07;;;3.53;;
13933;SDS011;7039;52.168;9.866;2022-07-22T14:04:20;6.53;;;3.47;;
13933;SDS011;7039;52.168;9.866;2022-07-22T14:06:48;9.13;;;3.53;;
13933;SDS011;7039;52.168;9.866;2022-07-22T14:09:15;6.43;;;3.27;;
13933;SDS011;7039;52.168;9.866;2022-07-22T14:11:41;7.17;;;3.40;;
13933;SDS011;7039;52.168;9.866;2022-07-22T14:14:08;5.23;;;3.47;;
13933;SDS011;7039;52.168;9.866;2022-07-22T14:16:35;5.40;;;3.70;;
13933;SDS011;7039;52.168;9.866;2022-07-22T14:19:03;8.00;;;3.50;;
13933;SDS011;7039;52.168;9.866;2022-07-22T14:21:30;6.03;;;3.93;;
13933;SDS011;7039;52.168;9.866;2022-07-22T14:23:58;7.97;;;3.87;;
13933;SDS011;7039;52.168;9.866;2022-07-22T14:26:25;4.33;;;3.73;;
13933;SDS011;7039;52.168;9.866;2022-07-22T14:28:52;6.17;;;3.70;;
13933;SDS011;7039;52.168;9.866;2022-07-22T14:31:19;6.90;;;3.50;;
13933;SDS011;7039;52.168;9.866;2022-07-22T14:33:46;6.83;;;3.87;;
13933;SDS011;7039;52.168;9.866;2022-07-22T14:36:13;5.23;;;3.80;;
13933;SDS011;7039;52.168;9.866;2022-07-22T14:38:40;8.33;;;3.93;;
13933;SDS011;7039;52.168;9.866;2022-07-22T14:41:10;4.50;;;3.37;;
13933;SDS011;7039;52.168;9.866;2022-07-22T14:43:37;7.70;;;3.70;;
13933;SDS011;7039;52.168;9.866;2022-07-22T14:46:04;6.23;;;3.93;;
13933;SDS011;7039;52.168;9.866;2022-07-22T14:48:32;5.93;;;3.70;;
13933;SDS011;7039;52.168;9.866;2022-07-22T14:50:59;7.87;;;3.83;;
13933;SDS011;7039;52.168;9.866;2022-07-22T14:53:25;6.80;;;3.73;;
13933;SDS011;7039;52.168;9.866;2022-07-22T14:55:52;14.40;;;4.30;;
13933;SDS011;7039;52.168;9.866;2022-07-22T14:58:20;7.63;;;3.73;;
13933;SDS011;7039;52.168;9.866;2022-07-22T15:00:46;9.30;;;4.40;;
13933;SDS011;7039;52.168;9.866;2022-07-22T15:03:13;10.53;;;3.93;;
13933;SDS011;7039;52.168;9.866;2022-07-22T15:05:40;8.27;;;3.33;;
13933;SDS011;7039;52.168;9.866;2022-07-22T15:08:07;5.67;;;3.67;;
13933;SDS011;7039;52.168;9.866;2022-07-22T15:10:34;7.63;;;3.93;;
13933;SDS011;7039;52.168;9.866;2022-07-22T15:13:01;9.57;;;4.33;;
13933;SDS011;7039;52.168;9.866;2022-07-22T15:15:29;10.40;;;4.70;;
13933;SDS011;7039;52.168;9.866;2022-07-22T15:17:56;7.77;;;3.80;;
13933;SDS011;7039;52.168;9.866;2022-07-22T15:20:24;10.57;;;3.97;;
13933;SDS011;7039;52.168;9.866;2022-07-22T15:22:51;9.50;;;4.40;;
13933;SDS011;7039;52.168;9.866;2022-07-22T15:25:19;8.07;;;4.90;;
13933;SDS011;7039;52.168;9.866;2022-07-22T15:27:47;8.87;;;4.87;;
13933;SDS011;7039;52.168;9.866;2022-07-22T15:30:14;9.80;;;4.47;;
13933;SDS011;7039;52.168;9.866;2022-07-22T15:32:42;6.63;;;4.57;;
13933;SDS011;7039;52.168;9.866;2022-07-22T15:35:08;8.40;;;4.30;;
13933;SDS011;7039;52.168;9.866;2022-07-22T15:37:35;8.90;;;4.87;;
13933;SDS011;7039;52.168;9.866;2022-07-22T15:40:03;9.87;;;4.17;;
13933;SDS011;7039;52.168;9.866;2022-07-22T15:42:31;4.73;;;4.23;;
13933;SDS011;7039;52.168;9.866;2022-07-22T15:44:58;8.40;;;4.57;;
13933;SDS011;7039;52.168;9.866;2022-07-22T15:47:24;7.83;;;5.03;;
13933;SDS011;7039;52.168;9.866;2022-07-22T15:49:52;7.33;;;4.63;;
13933;SDS011;7039;52.168;9.866;2022-07-22T15:52:19;12.40;;;4.70;;
13933;SDS011;7039;52.168;9.866;2022-07-22T15:54:46;10.83;;;4.77;;
13933;SDS011;7039;52.168;9.866;2022-07-22T15:57:12;10.50;;;4.50;;
13933;SDS011;7039;52.168;9.866;2022-07-22T15:59:56;13.73;;;4.80;;
13933;SDS011;7039;52.168;9.866;2022-07-22T16:02:23;8.10;;;5.67;;
13933;SDS011;7039;52.168;9.866;2022-07-22T16:04:50;15.60;;;4.80;;
13933;SDS011;7039;52.168;9.866;2022-07-22T16:07:18;7.70;;;4.63;;